createdAt,value
2024-04-23T00:05:16.232Z,99358.27
2024-04-23T00:07:43.693Z,99359.05
2024-04-23T00:10:11.118Z,99360.04
2024-04-23T00:12:38.342Z,99356.86
2024-04-23T00:15:06.517Z,99355.75
2024-04-23T00:17:33.818Z,99360.33
2024-04-23T00:20:01.457Z,99365.20
2024-04-23T00:22:28.796Z,99369.54
2024-04-23T00:24:56.338Z,99371.92
2024-04-23T00:27:23.645Z,99377.06
2024-04-23T00:37:29.326Z,99381.35
2024-04-23T00:47:34.566Z,99380.52
2024-04-23T00:50:02.094Z,99380.46
2024-04-23T00:52:29.568Z,99384.33
2024-04-23T01:02:40.276Z,99381.00
2024-04-23T01:05:07.579Z,99378.87
2024-04-23T01:07:34.903Z,99372.67
2024-04-23T01:10:02.292Z,99378.58
2024-04-23T01:20:13.531Z,99382.52
2024-04-23T01:23:15.987Z,99383.64
2024-04-23T01:25:45.371Z,99384.10
2024-04-23T01:28:13.297Z,99387.09
2024-04-23T01:30:40.609Z,99391.91
2024-04-23T01:33:08.220Z,99390.19
2024-04-23T01:35:35.523Z,99393.04
2024-04-23T01:45:17.932Z,99390.34
2024-04-23T01:55:29.015Z,99401.72
2024-04-23T01:57:56.663Z,99405.09
2024-04-23T02:00:24.851Z,99405.03
2024-04-23T02:02:52.785Z,99407.02
2024-04-23T02:12:58.715Z,99406.50
2024-04-23T02:15:25.982Z,99410.00
2024-04-23T02:17:53.363Z,99410.27
2024-04-23T02:20:21.131Z,99414.41
2024-04-23T02:22:48.480Z,99419.98
2024-04-23T02:25:15.899Z,99422.70
2024-04-23T02:27:43.144Z,99422.48
2024-04-23T02:30:11.315Z,99428.06
2024-04-23T02:32:38.772Z,99424.41
2024-04-23T02:35:06.281Z,99426.99
2024-04-23T02:37:33.699Z,99426.66
2024-04-23T02:40:03.535Z,99428.95
2024-04-23T02:42:32.801Z,99427.91
2024-04-23T02:45:00.217Z,99429.89
2024-04-23T02:47:27.719Z,99428.88
2024-04-23T02:57:39.492Z,99435.45
2024-04-23T03:00:08.054Z,99441.98
2024-04-23T03:02:35.576Z,99445.52
2024-04-23T03:05:04.815Z,99444.98
2024-04-23T03:07:32.401Z,99442.67
2024-04-23T03:10:00.083Z,99445.62
2024-04-23T03:12:27.697Z,99453.78
2024-04-23T03:14:55.256Z,99449.19
2024-04-23T03:17:22.717Z,99452.45
2024-04-23T03:19:50.580Z,99451.97
2024-04-23T03:22:17.836Z,99447.46
2024-04-23T03:24:45.169Z,99446.64
2024-04-23T03:27:12.635Z,99446.79
2024-04-23T03:37:24.897Z,99435.27
2024-04-23T03:39:52.356Z,99435.38
2024-04-23T03:42:19.906Z,99433.21
2024-04-23T03:44:48.190Z,99433.29
2024-04-23T03:47:15.934Z,99433.76
2024-04-23T03:49:43.406Z,99433.39
2024-04-23T03:59:50.677Z,99448.30
2024-04-23T04:02:36.899Z,99446.27
2024-04-23T04:12:45.335Z,99450.41
2024-04-23T04:15:12.749Z,99449.70
2024-04-23T04:17:40.491Z,99451.23
2024-04-23T04:20:08.332Z,99450.25
2024-04-23T04:22:35.662Z,99454.41
2024-04-23T04:32:46.198Z,99463.39
2024-04-23T04:35:13.712Z,99461.73
2024-04-23T04:37:41.286Z,99461.92
2024-04-23T04:40:08.958Z,99456.83
2024-04-23T04:42:36.428Z,99460.26
2024-04-23T04:45:05.066Z,99458.80
2024-04-23T04:47:32.724Z,99455.36
2024-04-23T04:50:00.909Z,99455.86
2024-04-23T04:54:41.999Z,99459.65
2024-04-23T04:57:09.650Z,99458.23
2024-04-23T04:59:37.113Z,99463.21
2024-04-23T05:02:04.599Z,99469.89
2024-04-23T05:04:31.991Z,99473.34
2024-04-23T05:06:59.491Z,99479.30
2024-04-23T05:09:26.693Z,99481.59
2024-04-23T05:11:53.904Z,99477.97
2024-04-23T05:14:21.148Z,99480.95
2024-04-23T05:16:48.418Z,99476.88
2024-04-23T05:19:15.646Z,99479.91
2024-04-23T05:21:42.865Z,99479.34
2024-04-23T05:24:10.083Z,99484.55
2024-04-23T05:26:37.279Z,99484.03
2024-04-23T05:29:04.511Z,99481.34
2024-04-23T05:31:50.562Z,99485.84
2024-04-23T05:34:17.800Z,99489.02
2024-04-23T05:36:45.064Z,99485.77
2024-04-23T05:39:12.266Z,99485.58
2024-04-23T05:41:39.453Z,99480.98
2024-04-23T05:44:06.849Z,99481.66
2024-04-23T05:46:34.198Z,99485.02
2024-04-23T05:49:38.996Z,99487.49
2024-04-23T05:53:03.001Z,99487.95
2024-04-23T05:55:49.466Z,99491.16
2024-04-23T05:58:16.761Z,99492.55
2024-04-23T06:00:44.100Z,99493.56
2024-04-23T06:03:11.473Z,99493.46
2024-04-23T06:05:38.652Z,99498.02
2024-04-23T06:08:06.457Z,99497.35
2024-04-23T06:10:33.798Z,99496.38
2024-04-23T06:13:00.991Z,99496.55
2024-04-23T06:15:28.311Z,99495.14
2024-04-23T06:17:55.665Z,99495.36
2024-04-23T06:20:22.873Z,99491.79
2024-04-23T06:22:53.513Z,99491.26
2024-04-23T06:25:21.128Z,99489.84
2024-04-23T06:27:48.373Z,99493.27
2024-04-23T06:30:16.299Z,99494.43
2024-04-23T06:32:43.787Z,99494.27
2024-04-23T06:35:11.277Z,99488.73
2024-04-23T06:37:38.816Z,99486.02
2024-04-23T06:40:09.871Z,99482.10
2024-04-23T06:42:38.075Z,99477.05
2024-04-23T06:45:05.732Z,99476.53
2024-04-23T06:47:34.179Z,99482.45
2024-04-23T06:50:01.721Z,99481.02
2024-04-23T06:52:29.328Z,99477.34
2024-04-23T06:54:56.598Z,99478.02
2024-04-23T06:57:23.794Z,99474.99
2024-04-23T06:59:51.039Z,99479.58
2024-04-23T07:02:18.692Z,99478.45
2024-04-23T07:04:46.282Z,99479.05
2024-04-23T07:07:13.555Z,99477.86
2024-04-23T07:09:40.875Z,99478.73
2024-04-23T07:12:08.305Z,99476.45
2024-04-23T07:14:35.710Z,99470.11
2024-04-23T07:17:03.195Z,99468.39
2024-04-23T07:19:30.569Z,99469.40
2024-04-23T07:21:57.797Z,99466.13
2024-04-23T07:24:24.993Z,99468.19
2024-04-23T07:26:54.633Z,99466.33
2024-04-23T07:29:21.918Z,99460.58
2024-04-23T07:31:49.254Z,99458.36
2024-04-23T07:34:16.609Z,99458.13
2024-04-23T07:36:46.649Z,99463.23
2024-04-23T07:39:14.940Z,99463.50
2024-04-23T07:41:42.266Z,99464.83
2024-04-23T07:44:10.004Z,99468.15
2024-04-23T07:46:37.619Z,99467.41
2024-04-23T07:49:04.908Z,99462.91
2024-04-23T07:51:33.630Z,99458.93
2024-04-23T07:54:00.985Z,99459.52
2024-04-23T07:56:28.191Z,99461.02
2024-04-23T07:58:55.405Z,99465.11
2024-04-23T08:01:22.596Z,99462.44
2024-04-23T08:03:50.022Z,99462.39
2024-04-23T08:06:17.279Z,99458.58
2024-04-23T08:08:44.684Z,99456.73
2024-04-23T08:11:12.148Z,99461.16
2024-04-23T08:13:40.634Z,99463.31
2024-04-23T08:16:08.420Z,99461.46
2024-04-23T08:18:36.018Z,99463.05
2024-04-23T08:21:07.069Z,99457.77
2024-04-23T08:23:34.543Z,99461.47
2024-04-23T08:26:09.869Z,99457.73
2024-04-23T08:28:37.259Z,99458.61
2024-04-23T08:31:04.959Z,99456.64
2024-04-23T08:33:32.881Z,99455.83
2024-04-23T08:36:00.088Z,99456.93
2024-04-23T08:38:28.301Z,99457.87
2024-04-23T08:40:56.587Z,99460.60
2024-04-23T08:43:27.298Z,99462.38
2024-04-23T08:45:55.804Z,99463.14
2024-04-23T08:48:23.047Z,99462.64
2024-04-23T08:50:50.294Z,99459.42
2024-04-23T08:53:17.502Z,99459.17
2024-04-23T08:55:45.463Z,99459.20
2024-04-23T08:58:12.694Z,99457.77
2024-04-23T09:00:49.185Z,99456.63
2024-04-23T09:03:20.607Z,99459.27
2024-04-23T09:05:47.802Z,99456.98
2024-04-23T09:08:16.662Z,99460.62
2024-04-23T09:10:44.943Z,99458.86
2024-04-23T09:13:12.977Z,99461.13
2024-04-23T09:15:40.413Z,99461.29
2024-04-23T09:18:08.407Z,99457.42
2024-04-23T09:20:35.764Z,99447.69
2024-04-23T09:23:03.131Z,99447.20
2024-04-23T09:25:35.505Z,99451.48
2024-04-23T09:28:03.319Z,99450.20
2024-04-23T09:30:31.221Z,99449.70
2024-04-23T09:33:03.725Z,99443.59
2024-04-23T09:35:31.166Z,99434.14
2024-04-23T09:37:58.404Z,99426.73
2024-04-23T09:40:25.807Z,99423.70
2024-04-23T09:42:56.163Z,99426.77
2024-04-23T09:45:26.298Z,99429.27
2024-04-23T09:47:53.600Z,99421.27
2024-04-23T09:50:21.217Z,99423.52
2024-04-23T09:52:48.962Z,99422.98
2024-04-23T09:55:17.487Z,99423.86
2024-04-23T09:57:45.291Z,99423.23
2024-04-23T10:00:12.851Z,99423.14
2024-04-23T10:02:40.581Z,99424.34
2024-04-23T10:05:11.484Z,99427.13
2024-04-23T10:07:58.100Z,99428.40
2024-04-23T10:10:30.889Z,99432.11
2024-04-23T10:12:58.395Z,99431.20
2024-04-23T10:15:30.510Z,99434.45
2024-04-23T10:18:05.187Z,99432.19
2024-04-23T10:20:39.130Z,99433.20
2024-04-23T10:23:07.017Z,99434.25
2024-04-23T10:25:37.629Z,99433.33
2024-04-23T10:28:05.497Z,99436.57
2024-04-23T10:30:32.936Z,99435.44
2024-04-23T10:33:00.441Z,99439.02
2024-04-23T10:35:27.858Z,99436.52
2024-04-23T10:37:55.233Z,99435.60
2024-04-23T10:40:22.785Z,99432.98
2024-04-23T10:42:50.202Z,99429.27
2024-04-23T10:45:17.657Z,99423.64
2024-04-23T10:47:53.522Z,99427.81
2024-04-23T10:50:29.983Z,99426.00
2024-04-23T10:52:57.892Z,99426.30
2024-04-23T10:55:26.290Z,99422.23
2024-04-23T10:57:57.494Z,99416.77
2024-04-23T11:00:33.116Z,99416.34
2024-04-23T11:03:00.778Z,99409.20
2024-04-23T11:05:32.310Z,99405.53
2024-04-23T11:08:07.888Z,99402.58
2024-04-23T11:10:50.458Z,99405.52
2024-04-23T11:13:28.756Z,99400.88
2024-04-23T11:16:01.807Z,99398.94
2024-04-23T11:18:40.076Z,99397.09
2024-04-23T11:21:10.209Z,99395.15
2024-04-23T11:23:43.781Z,99388.04
2024-04-23T11:26:14.156Z,99384.30
2024-04-23T11:28:43.957Z,99379.52
2024-04-23T11:31:14.076Z,99374.83
2024-04-23T11:33:44.352Z,99368.98
2024-04-23T11:36:14.064Z,99364.75
2024-04-23T11:38:44.770Z,99352.95
2024-04-23T11:41:19.280Z,99348.23
2024-04-23T11:43:49.248Z,99341.09
2024-04-23T11:46:19.422Z,99340.14
2024-04-23T11:48:49.844Z,99332.48
2024-04-23T11:51:19.970Z,99336.21
2024-04-23T11:53:50.791Z,99329.64
2024-04-23T11:56:21.788Z,99328.98
2024-04-23T11:58:53.815Z,99328.33
2024-04-23T12:01:24.786Z,99326.20
2024-04-23T12:03:54.820Z,99316.34
2024-04-23T12:06:25.240Z,99312.23
2024-04-23T12:08:55.868Z,99308.52
2024-04-23T12:18:59.043Z,99276.41
2024-04-23T12:21:26.405Z,99268.61
2024-04-23T12:23:56.658Z,99263.89
2024-04-23T12:26:24.688Z,99273.52
2024-04-23T12:28:55.193Z,99266.65
2024-04-23T12:31:26.673Z,99260.64
2024-04-23T12:34:00.600Z,99253.65
2024-04-23T12:36:28.453Z,99254.58
2024-04-23T12:38:55.903Z,99248.64
2024-04-23T12:41:25.197Z,99246.33
2024-04-23T12:43:52.703Z,99242.40
2024-04-23T12:46:20.134Z,99243.50
2024-04-23T12:48:50.618Z,99242.55
2024-04-23T12:51:18.000Z,99239.96
2024-04-23T12:53:45.359Z,99239.35
2024-04-23T12:56:13.154Z,99236.80
2024-04-23T12:58:40.712Z,99236.34
2024-04-23T13:01:09.421Z,99231.85
2024-04-23T13:03:36.949Z,99233.02
2024-04-23T13:06:04.508Z,99229.90
2024-04-23T13:08:35.666Z,99230.67
2024-04-23T13:11:03.268Z,99224.11
2024-04-23T13:13:30.964Z,99221.48
2024-04-23T13:15:58.623Z,99218.11
2024-04-23T13:18:26.069Z,99212.71
2024-04-23T13:20:53.671Z,99211.08
2024-04-23T13:23:21.225Z,99209.83
2024-04-23T13:25:48.592Z,99212.64
2024-04-23T13:28:15.990Z,99222.48
2024-04-23T13:30:43.368Z,99231.37
2024-04-23T13:33:10.773Z,99236.45
2024-04-23T13:35:38.204Z,99236.16
2024-04-23T13:38:05.536Z,99226.41
2024-04-23T13:40:33.030Z,99231.73
2024-04-23T13:43:00.357Z,99226.79
2024-04-23T13:45:27.691Z,99226.40
2024-04-23T13:47:55.128Z,99222.57
2024-04-23T13:50:22.609Z,99224.98
2024-04-23T13:52:50.311Z,99217.73
2024-04-23T13:55:17.872Z,99209.18
2024-04-23T13:57:45.187Z,99204.64
2024-04-23T14:00:14.609Z,99202.50
2024-04-23T14:02:42.181Z,99192.56
2024-04-23T14:05:09.704Z,99190.84
2024-04-23T14:07:39.686Z,99185.77
2024-04-23T14:10:07.483Z,99188.34
2024-04-23T14:12:38.083Z,99186.02
2024-04-23T14:15:06.128Z,99180.54
2024-04-23T14:17:33.456Z,99182.30
2024-04-23T14:20:01.045Z,99174.79
2024-04-23T14:22:28.455Z,99172.92
2024-04-23T14:24:56.751Z,99173.73
2024-04-23T14:27:24.110Z,99169.87
2024-04-23T14:29:51.495Z,99166.18
2024-04-23T14:32:22.832Z,99165.45
2024-04-23T14:34:50.878Z,99161.83
2024-04-23T14:37:18.314Z,99160.04
2024-04-23T14:39:45.677Z,99157.73
2024-04-23T14:42:13.029Z,99155.11
2024-04-23T14:44:40.380Z,99147.77
2024-04-23T14:47:09.391Z,99142.02
2024-04-23T14:49:36.863Z,99146.15
2024-04-23T14:52:04.686Z,99143.95
2024-04-23T14:54:32.160Z,99133.56
2024-04-23T14:56:59.438Z,99129.76
2024-04-23T14:59:26.867Z,99126.95
2024-04-23T15:01:56.313Z,99122.27
2024-04-23T15:04:23.749Z,99117.28
2024-04-23T15:06:51.182Z,99114.92
2024-04-23T15:09:18.564Z,99119.43
2024-04-23T15:11:46.837Z,99118.16
2024-04-23T15:14:17.828Z,99116.23
2024-04-23T15:16:45.865Z,99111.79
2024-04-23T15:19:13.380Z,99106.16
2024-04-23T15:21:40.621Z,99104.85
2024-04-23T15:24:07.821Z,99102.63
2024-04-23T15:26:35.007Z,99100.28
2024-04-23T15:29:02.252Z,99096.67
2024-04-23T15:31:29.427Z,99091.70
2024-04-23T15:33:56.691Z,99085.02
2024-04-23T15:36:29.444Z,99077.83
2024-04-23T15:38:58.506Z,99072.02
2024-04-23T15:41:25.791Z,99067.69
2024-04-23T15:43:53.359Z,99064.16
2024-04-23T15:46:26.885Z,99059.29
2024-04-23T15:48:58.244Z,99063.92
2024-04-23T15:51:25.607Z,99062.35
2024-04-23T15:53:52.973Z,99063.00
2024-04-23T15:56:20.329Z,99060.13
2024-04-23T15:58:47.593Z,99061.10
2024-04-23T16:01:14.862Z,99055.58
2024-04-23T16:03:42.514Z,99052.97
2024-04-23T16:06:17.394Z,99052.77
2024-04-23T16:08:45.000Z,99051.45
2024-04-23T16:11:12.335Z,99045.23
2024-04-23T16:13:39.977Z,99040.33
2024-04-23T16:16:07.305Z,99033.58
2024-04-23T16:18:36.846Z,99035.19
2024-04-23T16:21:07.459Z,99029.08
2024-04-23T16:23:35.804Z,99018.35
2024-04-23T16:26:04.388Z,99017.59
2024-04-23T16:28:31.634Z,99015.63
2024-04-23T16:31:06.743Z,99010.19
2024-04-23T16:33:34.930Z,99005.21
2024-04-23T16:36:06.348Z,99006.29
2024-04-23T16:38:37.492Z,99004.94
2024-04-23T16:41:05.029Z,99001.48
2024-04-23T16:43:32.413Z,98993.22
2024-04-23T16:46:04.022Z,98989.93
2024-04-23T16:48:32.727Z,98989.91
2024-04-23T16:51:00.075Z,98987.10
2024-04-23T16:53:29.174Z,98986.05
2024-04-23T16:55:57.094Z,98980.42
2024-04-23T16:58:24.324Z,98978.09
2024-04-23T17:00:51.600Z,98974.79
2024-04-23T17:03:18.976Z,98969.77
2024-04-23T17:05:47.022Z,98964.19
2024-04-23T17:08:14.411Z,98964.10
2024-04-23T17:10:46.028Z,98964.14
2024-04-23T17:13:14.424Z,98967.04
2024-04-23T17:15:43.404Z,98963.63
2024-04-23T17:18:10.804Z,98958.45
2024-04-23T17:20:38.129Z,98962.19
2024-04-23T17:23:05.446Z,98963.86
2024-04-23T17:25:36.695Z,98962.11
2024-04-23T17:28:04.505Z,98959.87
2024-04-23T17:30:31.737Z,98954.61
2024-04-23T17:32:59.242Z,98955.55
2024-04-23T17:35:26.606Z,98947.66
2024-04-23T17:37:53.816Z,98949.31
2024-04-23T17:40:21.038Z,98949.98
2024-04-23T17:42:50.582Z,98949.67
2024-04-23T17:45:17.817Z,98949.40
2024-04-23T17:47:45.211Z,98947.79
2024-04-23T17:50:13.056Z,98947.11
2024-04-23T17:52:40.300Z,98947.52
2024-04-23T17:55:08.387Z,98945.30
2024-04-23T17:57:35.880Z,98945.67
2024-04-23T18:00:06.192Z,98945.17
2024-04-23T18:02:40.061Z,98944.60
2024-04-23T18:05:07.964Z,98943.30
2024-04-23T18:07:35.299Z,98938.38
2024-04-23T18:10:02.821Z,98939.90
2024-04-23T18:12:30.054Z,98946.25
2024-04-23T18:14:58.004Z,98941.42
2024-04-23T18:17:25.562Z,98935.38
2024-04-23T18:19:52.959Z,98930.73
2024-04-23T18:22:20.443Z,98922.06
2024-04-23T18:24:47.676Z,98914.73
2024-04-23T18:27:16.698Z,98912.10
2024-04-23T18:29:43.921Z,98907.41
2024-04-23T18:32:11.410Z,98908.40
2024-04-23T18:34:38.812Z,98903.90
2024-04-23T18:37:06.049Z,98901.23
2024-04-23T18:39:33.375Z,98897.27
2024-04-23T18:42:01.014Z,98893.51
2024-04-23T18:44:28.254Z,98886.48
2024-04-23T18:46:56.031Z,98882.92
2024-04-23T18:49:24.289Z,98876.23
2024-04-23T18:51:52.054Z,98873.41
2024-04-23T18:54:19.378Z,98869.54
2024-04-23T18:56:46.627Z,98871.84
2024-04-23T18:59:13.949Z,98870.72
2024-04-23T19:01:41.420Z,98865.73
2024-04-23T19:04:08.701Z,98862.36
2024-04-23T19:06:35.969Z,98859.48
2024-04-23T19:09:03.353Z,98861.05
2024-04-23T19:11:32.471Z,98859.45
2024-04-23T19:14:10.739Z,98861.55
2024-04-23T19:16:45.524Z,98860.98
2024-04-23T19:19:13.075Z,98857.55
2024-04-23T19:21:40.445Z,98854.64
2024-04-23T19:24:07.897Z,98854.39
2024-04-23T19:26:35.117Z,98854.14
2024-04-23T19:29:02.390Z,98852.30
2024-04-23T19:31:29.780Z,98849.84
2024-04-23T19:33:57.016Z,98849.23
2024-04-23T19:36:26.559Z,98842.53
2024-04-23T19:38:53.832Z,98835.23
2024-04-23T19:41:21.312Z,98828.77
2024-04-23T19:43:52.951Z,98830.66
2024-04-23T19:46:23.936Z,98829.35
2024-04-23T19:48:51.422Z,98821.06
2024-04-23T19:51:21.352Z,98818.11
2024-04-23T19:53:51.651Z,98816.36
2024-04-23T19:56:34.651Z,98808.23
2024-04-23T19:59:03.756Z,98807.73
2024-04-23T20:01:38.967Z,98803.35
2024-04-23T20:04:06.304Z,98806.88
2024-04-23T20:06:33.947Z,98799.80
2024-04-23T20:09:02.695Z,98803.06
2024-04-23T20:11:30.134Z,98800.90
2024-04-23T20:13:57.784Z,98799.99
2024-04-23T20:16:25.088Z,98797.41
2024-04-23T20:18:54.591Z,98798.86
2024-04-23T20:21:21.913Z,98799.61
2024-04-23T20:23:55.809Z,98789.36
2024-04-23T20:26:24.106Z,98787.14
2024-04-23T20:28:52.936Z,98787.00
2024-04-23T20:31:20.247Z,98784.71
2024-04-23T20:33:47.526Z,98773.06
2024-04-23T20:36:14.891Z,98770.16
2024-04-23T20:38:42.887Z,98768.98
2024-04-23T20:41:10.349Z,98768.17
2024-04-23T20:43:37.868Z,98763.89
2024-04-23T20:46:08.356Z,98762.10
2024-04-23T20:48:35.994Z,98758.31
2024-04-23T20:51:06.534Z,98748.55
2024-04-23T20:53:33.785Z,98738.19
2024-04-23T20:56:08.320Z,98735.59
2024-04-23T20:58:35.817Z,98735.06
2024-04-23T21:01:09.779Z,98731.64
2024-04-23T21:03:37.600Z,98731.59
2024-04-23T21:06:09.836Z,98725.17
2024-04-23T21:08:38.311Z,98722.78
2024-04-23T21:11:15.913Z,98717.63
2024-04-23T21:13:46.892Z,98716.85
2024-04-23T21:16:14.568Z,98710.77
2024-04-23T21:18:42.454Z,98706.38
2024-04-23T21:21:09.753Z,98704.15
2024-04-23T21:23:37.129Z,98701.45
2024-04-23T21:26:04.664Z,98703.14
2024-04-23T21:28:31.980Z,98697.19
2024-04-23T21:31:02.361Z,98698.50
2024-04-23T21:33:29.687Z,98696.38
2024-04-23T21:36:08.272Z,98693.84
2024-04-23T21:38:35.972Z,98691.77
2024-04-23T21:41:07.243Z,98687.87
2024-04-23T21:43:35.376Z,98681.42
2024-04-23T21:46:08.975Z,98675.58
2024-04-23T21:48:36.568Z,98676.41
2024-04-23T21:51:14.673Z,98671.02
2024-04-23T21:53:42.097Z,98671.25
2024-04-23T21:56:09.958Z,98666.80
2024-04-23T21:58:37.765Z,98664.48
2024-04-23T22:01:15.160Z,98661.38
2024-04-23T22:03:42.851Z,98657.54
2024-04-23T22:06:10.969Z,98658.38
2024-04-23T22:08:38.641Z,98658.81
2024-04-23T22:11:07.848Z,98654.66
2024-04-23T22:13:38.289Z,98650.02
2024-04-23T22:16:08.673Z,98648.41
2024-04-23T22:18:38.215Z,98643.02
2024-04-23T22:21:08.306Z,98640.67
2024-04-23T22:23:37.926Z,98638.32
2024-04-23T22:26:07.779Z,98635.14
2024-04-23T22:28:36.844Z,98632.39
2024-04-23T22:31:07.311Z,98630.21
2024-04-23T22:33:37.888Z,98629.48
2024-04-23T22:36:07.894Z,98624.27
2024-04-23T22:38:38.355Z,98619.98
2024-04-23T22:41:08.435Z,98617.67
2024-04-23T22:43:37.800Z,98610.43
2024-04-23T22:46:07.763Z,98602.50
2024-04-23T22:48:37.942Z,98596.83
2024-04-23T22:51:07.035Z,98597.23
2024-04-23T22:53:36.694Z,98592.91
2024-04-23T22:56:05.862Z,98590.71
2024-04-23T22:58:36.395Z,98587.17
2024-04-23T23:01:06.438Z,98584.59
2024-04-23T23:03:36.426Z,98579.00
2024-04-23T23:06:06.009Z,98577.52
2024-04-23T23:08:35.792Z,98574.20
2024-04-23T23:17:23.337Z,98570.20
2024-04-23T23:26:06.118Z,98557.19
2024-04-23T23:28:33.417Z,98551.34
2024-04-23T23:31:00.762Z,98547.52
2024-04-23T23:33:28.326Z,98547.39
2024-04-23T23:35:55.783Z,98543.95
2024-04-23T23:45:54.411Z,98530.58
2024-04-23T23:48:22.853Z,98528.95
2024-04-23T23:50:50.250Z,98519.14
